sensor_id;sensor_type;location;lat;lon;timestamp;pressure;altitude;pressure_sealevel;temperature;humidity
6435;BME280;3250;42.694;23.278;2024-02-28T00:00:47;95164.13;;;9.38;73.41
6435;BME280;3250;42.694;23.278;2024-02-28T00:03:13;95149.19;;;9.38;73.19
6435;BME280;3250;42.694;23.278;2024-02-28T00:05:38;95146.34;;;9.33;73.62
6435;BME280;3250;42.694;23.278;2024-02-28T00:08:04;95161.47;;;9.31;73.51
6435;BME280;3250;42.694;23.278;2024-02-28T00:10:29;95174.16;;;9.21;73.94
6435;BME280;3250;42.694;23.278;2024-02-28T00:12:55;95167.44;;;9.12;75.04
6435;BME280;3250;42.694;23.278;2024-02-28T00:15:20;95159.59;;;9.19;74.99
6435;BME280;3250;42.694;23.278;2024-02-28T00:17:46;95161.19;;;9.13;74.49
6435;BME280;3250;42.694;23.278;2024-02-28T00:20:11;95165.19;;;9.09;75.11
6435;BME280;3250;42.694;23.278;2024-02-28T00:22:38;95167.41;;;9.05;75.40
6435;BME280;3250;42.694;23.278;2024-02-28T00:25:04;95168.41;;;9.04;75.22
6435;BME280;3250;42.694;23.278;2024-02-28T00:27:32;95140.84;;;8.87;75.40
6435;BME280;3250;42.694;23.278;2024-02-28T00:29:58;95167.41;;;9.05;75.29
6435;BME280;3250;42.694;23.278;2024-02-28T00:32:23;95173.50;;;9.13;74.82
6435;BME280;3250;42.694;23.278;2024-02-28T00:34:48;95168.88;;;9.15;74.76
6435;BME280;3250;42.694;23.278;2024-02-28T00:37:14;95164.44;;;9.15;74.99
6435;BME280;3250;42.694;23.278;2024-02-28T00:39:39;95164.59;;;9.07;75.38
6435;BME280;3250;42.694;23.278;2024-02-28T00:42:05;95166.41;;;9.06;75.54
6435;BME280;3250;42.694;23.278;2024-02-28T00:44:30;95166.25;;;9.15;75.26
6435;BME280;3250;42.694;23.278;2024-02-28T00:46:56;95166.94;;;8.95;75.75
6435;BME280;3250;42.694;23.278;2024-02-28T00:49:22;95173.47;;;9.06;75.66
6435;BME280;3250;42.694;23.278;2024-02-28T00:51:47;95171.88;;;9.12;74.95
6435;BME280;3250;42.694;23.278;2024-02-28T00:54:13;95158.09;;;9.03;75.13
6435;BME280;3250;42.694;23.278;2024-02-28T00:56:38;95173.81;;;8.96;74.85
6435;BME280;3250;42.694;23.278;2024-02-28T00:59:04;95170.94;;;8.91;75.01
6435;BME280;3250;42.694;23.278;2024-02-28T01:01:31;95164.47;;;8.87;75.48
6435;BME280;3250;42.694;23.278;2024-02-28T01:03:57;95175.53;;;8.83;76.50
6435;BME280;3250;42.694;23.278;2024-02-28T01:06:22;95177.34;;;8.82;76.17
6435;BME280;3250;42.694;23.278;2024-02-28T01:08:47;95182.75;;;8.74;76.52
6435;BME280;3250;42.694;23.278;2024-02-28T01:11:13;95169.44;;;8.76;76.39
6435;BME280;3250;42.694;23.278;2024-02-28T01:13:38;95177.03;;;8.64;76.74
6435;BME280;3250;42.694;23.278;2024-02-28T01:16:04;95181.63;;;8.55;77.33
6435;BME280;3250;42.694;23.278;2024-02-28T01:18:30;95174.47;;;8.49;77.91
6435;BME280;3250;42.694;23.278;2024-02-28T01:20:57;95178.53;;;8.52;77.78
6435;BME280;3250;42.694;23.278;2024-02-28T01:23:22;95178.38;;;8.53;77.69
6435;BME280;3250;42.694;23.278;2024-02-28T01:25:48;95178.41;;;8.60;77.03
6435;BME280;3250;42.694;23.278;2024-02-28T01:28:13;95179.84;;;8.62;76.79
6435;BME280;3250;42.694;23.278;2024-02-28T01:30:39;95184.25;;;8.55;77.40
6435;BME280;3250;42.694;23.278;2024-02-28T01:33:04;95182.16;;;8.51;77.02
6435;BME280;3250;42.694;23.278;2024-02-28T01:35:30;95183.13;;;8.43;76.90
6435;BME280;3250;42.694;23.278;2024-02-28T01:37:55;95185.13;;;8.41;77.66
6435;BME280;3250;42.694;23.278;2024-02-28T01:40:20;95193.66;;;8.50;77.24
6435;BME280;3250;42.694;23.278;2024-02-28T01:42:46;95176.38;;;8.34;77.60
6435;BME280;3250;42.694;23.278;2024-02-28T01:45:13;95195.66;;;8.48;77.17
6435;BME280;3250;42.694;23.278;2024-02-28T01:47:41;95185.84;;;8.56;77.06
6435;BME280;3250;42.694;23.278;2024-02-28T01:50:07;95179.88;;;8.41;77.38
6435;BME280;3250;42.694;23.278;2024-02-28T01:52:33;95188.97;;;8.24;78.71
6435;BME280;3250;42.694;23.278;2024-02-28T01:54:59;95176.25;;;8.21;78.10
6435;BME280;3250;42.694;23.278;2024-02-28T01:57:24;95196.88;;;8.30;78.29
6435;BME280;3250;42.694;23.278;2024-02-28T01:59:52;95193.47;;;8.30;77.75
6435;BME280;3250;42.694;23.278;2024-02-28T02:02:19;95197.53;;;8.32;77.61
6435;BME280;3250;42.694;23.278;2024-02-28T02:04:45;95201.44;;;8.37;77.29
6435;BME280;3250;42.694;23.278;2024-02-28T02:07:10;95189.53;;;8.41;77.52
6435;BME280;3250;42.694;23.278;2024-02-28T02:09:36;95182.63;;;8.33;77.53
6435;BME280;3250;42.694;23.278;2024-02-28T02:12:02;95196.06;;;8.45;77.21
6435;BME280;3250;42.694;23.278;2024-02-28T02:14:27;95187.50;;;8.36;77.25
6435;BME280;3250;42.694;23.278;2024-02-28T02:16:52;95193.03;;;8.26;78.08
6435;BME280;3250;42.694;23.278;2024-02-28T02:19:18;95191.22;;;8.06;78.81
6435;BME280;3250;42.694;23.278;2024-02-28T02:21:58;95178.47;;;8.24;78.42
6435;BME280;3250;42.694;23.278;2024-02-28T02:24:23;95182.19;;;8.29;78.18
6435;BME280;3250;42.694;23.278;2024-02-28T02:26:49;95184.44;;;8.11;79.19
6435;BME280;3250;42.694;23.278;2024-02-28T02:29:17;95190.19;;;8.21;78.79
6435;BME280;3250;42.694;23.278;2024-02-28T02:31:42;95187.34;;;8.23;78.56
6435;BME280;3250;42.694;23.278;2024-02-28T02:34:08;95187.50;;;8.36;77.91
6435;BME280;3250;42.694;23.278;2024-02-28T02:36:34;95196.47;;;8.27;78.17
6435;BME280;3250;42.694;23.278;2024-02-28T02:38:59;95200.09;;;8.26;77.99
6435;BME280;3250;42.694;23.278;2024-02-28T02:41:26;95200.53;;;8.08;80.16
6435;BME280;3250;42.694;23.278;2024-02-28T02:43:51;95192.41;;;8.03;79.69
6435;BME280;3250;42.694;23.278;2024-02-28T02:46:17;95197.38;;;7.98;79.77
6435;BME280;3250;42.694;23.278;2024-02-28T02:48:42;95194.88;;;7.90;80.25
6435;BME280;3250;42.694;23.278;2024-02-28T02:51:08;95189.94;;;7.80;80.57
6435;BME280;3250;42.694;23.278;2024-02-28T02:53:33;95185.50;;;7.81;81.24
6435;BME280;3250;42.694;23.278;2024-02-28T02:55:58;95185.66;;;7.94;80.34
6435;BME280;3250;42.694;23.278;2024-02-28T02:58:24;95183.63;;;8.11;79.66
6435;BME280;3250;42.694;23.278;2024-02-28T03:00:49;95187.91;;;8.18;79.05
6435;BME280;3250;42.694;23.278;2024-02-28T03:03:15;95188.47;;;8.14;79.55
6435;BME280;3250;42.694;23.278;2024-02-28T03:05:40;95194.72;;;8.13;80.10
6435;BME280;3250;42.694;23.278;2024-02-28T03:08:06;95192.19;;;8.05;79.99
6435;BME280;3250;42.694;23.278;2024-02-28T03:10:31;95188.41;;;8.07;79.97
6435;BME280;3250;42.694;23.278;2024-02-28T03:12:57;95195.47;;;8.07;79.64
6435;BME280;3250;42.694;23.278;2024-02-28T03:15:22;95197.38;;;7.98;80.06
6435;BME280;3250;42.694;23.278;2024-02-28T03:17:48;95194.22;;;8.03;79.57
6435;BME280;3250;42.694;23.278;2024-02-28T03:20:13;95191.78;;;8.01;79.95
6435;BME280;3250;42.694;23.278;2024-02-28T03:22:39;95184.84;;;8.15;79.62
6435;BME280;3250;42.694;23.278;2024-02-28T03:25:06;95197.66;;;8.24;78.76
6435;BME280;3250;42.694;23.278;2024-02-28T03:27:32;95199.84;;;8.21;78.90
6435;BME280;3250;42.694;23.278;2024-02-28T03:29:57;95197.72;;;8.31;78.32
6435;BME280;3250;42.694;23.278;2024-02-28T03:32:22;95181.69;;;8.19;79.00
6435;BME280;3250;42.694;23.278;2024-02-28T03:34:48;95206.28;;;8.18;78.83
6435;BME280;3250;42.694;23.278;2024-02-28T03:37:14;95203.06;;;8.23;78.60
6435;BME280;3250;42.694;23.278;2024-02-28T03:39:39;95203.03;;;8.16;78.51
6435;BME280;3250;42.694;23.278;2024-02-28T03:42:05;95215.59;;;8.21;78.92
6435;BME280;3250;42.694;23.278;2024-02-28T03:44:30;95216.75;;;8.18;78.60
6435;BME280;3250;42.694;23.278;2024-02-28T03:46:56;95207.72;;;8.21;78.36
6435;BME280;3250;42.694;23.278;2024-02-28T03:49:21;95191.44;;;7.89;78.94
6435;BME280;3250;42.694;23.278;2024-02-28T03:51:47;95210.56;;;8.05;79.19
6435;BME280;3250;42.694;23.278;2024-02-28T03:54:12;95212.63;;;8.09;79.15
6435;BME280;3250;42.694;23.278;2024-02-28T03:56:38;95216.69;;;8.12;79.36
6435;BME280;3250;42.694;23.278;2024-02-28T03:59:03;95221.56;;;8.15;78.61
6435;BME280;3250;42.694;23.278;2024-02-28T04:01:29;95211.56;;;8.04;79.54
6435;BME280;3250;42.694;23.278;2024-02-28T04:03:55;95216.88;;;8.10;79.34
6435;BME280;3250;42.694;23.278;2024-02-28T04:06:20;95211.19;;;8.07;78.85
6435;BME280;3250;42.694;23.278;2024-02-28T04:08:46;95214.56;;;8.01;78.77
6435;BME280;3250;42.694;23.278;2024-02-28T04:11:11;95214.00;;;8.05;78.75
6435;BME280;3250;42.694;23.278;2024-02-28T04:13:37;95205.00;;;7.93;79.48
6435;BME280;3250;42.694;23.278;2024-02-28T04:16:02;95205.44;;;7.96;79.16
6435;BME280;3250;42.694;23.278;2024-02-28T04:18:31;95207.06;;;7.97;79.56
6435;BME280;3250;42.694;23.278;2024-02-28T04:20:56;95205.31;;;7.83;79.94
6435;BME280;3250;42.694;23.278;2024-02-28T04:23:22;95198.19;;;7.77;80.25
6435;BME280;3250;42.694;23.278;2024-02-28T04:25:47;95205.06;;;7.78;80.28
6435;BME280;3250;42.694;23.278;2024-02-28T04:28:13;95200.94;;;7.69;81.50
6435;BME280;3250;42.694;23.278;2024-02-28T04:30:39;95198.78;;;7.58;81.12
6435;BME280;3250;42.694;23.278;2024-02-28T04:33:04;95205.72;;;7.66;81.10
6435;BME280;3250;42.694;23.278;2024-02-28T04:35:30;95201.47;;;7.65;81.05
6435;BME280;3250;42.694;23.278;2024-02-28T04:37:55;95200.75;;;7.56;81.30
6435;BME280;3250;42.694;23.278;2024-02-28T04:40:20;95189.94;;;7.44;80.84
6435;BME280;3250;42.694;23.278;2024-02-28T04:42:46;95197.97;;;7.57;80.84
6435;BME280;3250;42.694;23.278;2024-02-28T04:45:11;95200.41;;;7.59;81.07
6435;BME280;3250;42.694;23.278;2024-02-28T04:47:37;95202.91;;;7.67;81.21
6435;BME280;3250;42.694;23.278;2024-02-28T04:50:04;95211.13;;;7.64;81.06
6435;BME280;3250;42.694;23.278;2024-02-28T04:52:30;95218.84;;;7.51;81.35
6435;BME280;3250;42.694;23.278;2024-02-28T04:54:56;95213.03;;;7.55;81.59
6435;BME280;3250;42.694;23.278;2024-02-28T04:57:22;95193.00;;;7.48;81.72
6435;BME280;3250;42.694;23.278;2024-02-28T04:59:47;95218.97;;;7.64;81.54
6435;BME280;3250;42.694;23.278;2024-02-28T05:02:18;95220.44;;;7.67;81.56
6435;BME280;3250;42.694;23.278;2024-02-28T05:04:52;95211.41;;;7.54;81.63
6435;BME280;3250;42.694;23.278;2024-02-28T05:07:21;95223.59;;;7.62;81.79
6435;BME280;3250;42.694;23.278;2024-02-28T05:09:51;95220.78;;;7.64;81.95
6435;BME280;3250;42.694;23.278;2024-02-28T05:12:20;95224.22;;;7.64;81.64
6435;BME280;3250;42.694;23.278;2024-02-28T05:18:22;95238.25;;;7.56;82.23
6435;BME280;3250;42.694;23.278;2024-02-28T05:21:05;95218.84;;;7.51;81.91
6435;BME280;3250;42.694;23.278;2024-02-28T05:23:31;95247.00;;;7.64;81.95
6435;BME280;3250;42.694;23.278;2024-02-28T05:26:30;95244.38;;;7.78;81.18
6435;BME280;3250;42.694;23.278;2024-02-28T05:29:20;95243.56;;;7.78;81.53
6435;BME280;3250;42.694;23.278;2024-02-28T05:32:10;95253.13;;;8.07;81.08
6435;BME280;3250;42.694;23.278;2024-02-28T05:34:41;95250.38;;;8.29;79.96
6435;BME280;3250;42.694;23.278;2024-02-28T05:37:14;95266.38;;;8.35;79.58
6435;BME280;3250;42.694;23.278;2024-02-28T05:39:53;95266.03;;;8.65;79.36
6435;BME280;3250;42.694;23.278;2024-02-28T05:42:25;95275.69;;;9.07;77.90
6435;BME280;3250;42.694;23.278;2024-02-28T05:45:09;95278.63;;;9.26;76.81
6435;BME280;3250;42.694;23.278;2024-02-28T05:47:36;95283.13;;;9.60;75.35
6435;BME280;3250;42.694;23.278;2024-02-28T05:50:10;95275.38;;;9.93;74.07
6435;BME280;3250;42.694;23.278;2024-02-28T05:52:46;95280.03;;;10.51;71.93
6435;BME280;3250;42.694;23.278;2024-02-28T06:01:27;95289.56;;;11.51;68.17
6435;BME280;3250;42.694;23.278;2024-02-28T06:03:53;95295.91;;;12.15;66.68
6435;BME280;3250;42.694;23.278;2024-02-28T06:06:40;95301.19;;;13.22;63.34
6435;BME280;3250;42.694;23.278;2024-02-28T06:09:12;95276.44;;;14.14;60.26
6435;BME280;3250;42.694;23.278;2024-02-28T06:11:38;95309.47;;;15.31;56.54
6435;BME280;3250;42.694;23.278;2024-02-28T06:14:06;95300.13;;;16.22;53.70
6435;BME280;3250;42.694;23.278;2024-02-28T06:16:34;95310.91;;;17.12;51.26
6435;BME280;3250;42.694;23.278;2024-02-28T06:19:00;95301.56;;;17.77;49.28
6435;BME280;3250;42.694;23.278;2024-02-28T06:21:38;95303.22;;;18.43;47.74
6435;BME280;3250;42.694;23.278;2024-02-28T06:24:14;95310.31;;;17.94;48.08
6435;BME280;3250;42.694;23.278;2024-02-28T06:26:43;95305.31;;;18.58;47.00
6435;BME280;3250;42.694;23.278;2024-02-28T06:29:09;95310.63;;;19.33;44.88
6435;BME280;3250;42.694;23.278;2024-02-28T06:31:35;95309.25;;;20.00;44.17
6435;BME280;3250;42.694;23.278;2024-02-28T06:34:00;95312.50;;;20.54;43.00
6435;BME280;3250;42.694;23.278;2024-02-28T06:36:27;95313.81;;;21.34;41.16
6435;BME280;3250;42.694;23.278;2024-02-28T06:38:53;95306.84;;;21.38;40.86
6435;BME280;3250;42.694;23.278;2024-02-28T06:41:18;95309.50;;;21.23;41.00
6435;BME280;3250;42.694;23.278;2024-02-28T06:43:44;95311.31;;;21.02;41.05
6435;BME280;3250;42.694;23.278;2024-02-28T06:46:11;95308.56;;;20.77;42.25
6435;BME280;3250;42.694;23.278;2024-02-28T06:48:36;95305.38;;;20.85;42.49
6435;BME280;3250;42.694;23.278;2024-02-28T06:51:02;95314.78;;;20.97;41.51
6435;BME280;3250;42.694;23.278;2024-02-28T06:53:27;95318.91;;;21.45;41.58
6435;BME280;3250;42.694;23.278;2024-02-28T06:55:53;95322.38;;;21.81;40.46
6435;BME280;3250;42.694;23.278;2024-02-28T06:58:18;95323.97;;;22.98;38.25
6435;BME280;3250;42.694;23.278;2024-02-28T07:00:44;95320.50;;;23.36;37.48
6435;BME280;3250;42.694;23.278;2024-02-28T07:03:09;95318.03;;;23.84;37.29
6435;BME280;3250;42.694;23.278;2024-02-28T07:05:35;95316.16;;;24.08;35.37
6435;BME280;3250;42.694;23.278;2024-02-28T07:08:01;95309.94;;;24.84;34.60
6435;BME280;3250;42.694;23.278;2024-02-28T07:10:27;95314.31;;;24.80;32.87
6435;BME280;3250;42.694;23.278;2024-02-28T07:12:52;95315.00;;;25.84;31.88
6435;BME280;3250;42.694;23.278;2024-02-28T07:15:18;95316.06;;;25.13;31.66
6435;BME280;3250;42.694;23.278;2024-02-28T07:17:47;95314.31;;;24.80;32.51
6435;BME280;3250;42.694;23.278;2024-02-28T07:20:13;95314.69;;;24.50;32.81
6435;BME280;3250;42.694;23.278;2024-02-28T07:22:38;95321.63;;;23.98;33.08
6435;BME280;3250;42.694;23.278;2024-02-28T07:25:05;95316.03;;;22.67;36.26
6435;BME280;3250;42.694;23.278;2024-02-28T07:27:30;95300.13;;;21.96;38.16
6435;BME280;3250;42.694;23.278;2024-02-28T07:29:56;95294.00;;;20.42;41.25
6435;BME280;3250;42.694;23.278;2024-02-28T07:32:22;95308.38;;;20.31;41.29
6435;BME280;3250;42.694;23.278;2024-02-28T07:34:48;95296.31;;;20.23;41.23
6435;BME280;3250;42.694;23.278;2024-02-28T07:37:14;95315.22;;;20.64;40.88
6435;BME280;3250;42.694;23.278;2024-02-28T07:39:39;95318.34;;;21.23;40.11
6435;BME280;3250;42.694;23.278;2024-02-28T07:42:05;95314.34;;;21.51;39.47
6435;BME280;3250;42.694;23.278;2024-02-28T07:44:30;95319.97;;;22.10;39.01
6435;BME280;3250;42.694;23.278;2024-02-28T07:46:57;95318.78;;;22.52;37.65
6435;BME280;3250;42.694;23.278;2024-02-28T07:49:23;95314.41;;;22.71;37.64
6435;BME280;3250;42.694;23.278;2024-02-28T07:51:51;95314.03;;;22.93;37.34
6435;BME280;3250;42.694;23.278;2024-02-28T07:54:16;95324.50;;;23.00;37.17
6435;BME280;3250;42.694;23.278;2024-02-28T07:56:43;95303.16;;;22.64;37.07
6435;BME280;3250;42.694;23.278;2024-02-28T07:59:09;95324.88;;;22.78;37.41
6435;BME280;3250;42.694;23.278;2024-02-28T08:01:34;95327.78;;;22.86;38.48
6435;BME280;3250;42.694;23.278;2024-02-28T08:03:59;95318.66;;;22.87;37.67
6435;BME280;3250;42.694;23.278;2024-02-28T08:06:25;95324.59;;;22.79;37.67
6435;BME280;3250;42.694;23.278;2024-02-28T08:08:51;95322.69;;;22.85;38.39
6435;BME280;3250;42.694;23.278;2024-02-28T08:11:17;95314.75;;;22.54;37.58
6435;BME280;3250;42.694;23.278;2024-02-28T08:13:44;95317.75;;;22.33;38.25
6435;BME280;3250;42.694;23.278;2024-02-28T08:16:10;95312.47;;;21.97;38.87
6435;BME280;3250;42.694;23.278;2024-02-28T08:18:35;95303.34;;;21.63;39.89
6435;BME280;3250;42.694;23.278;2024-02-28T08:21:01;95309.28;;;21.44;39.29
6435;BME280;3250;42.694;23.278;2024-02-28T08:23:29;95313.00;;;21.49;40.78
6435;BME280;3250;42.694;23.278;2024-02-28T08:25:54;95307.31;;;20.99;42.91
6435;BME280;3250;42.694;23.278;2024-02-28T08:28:20;95303.13;;;20.51;42.81
6435;BME280;3250;42.694;23.278;2024-02-28T08:30:46;95299.31;;;19.90;44.92
6435;BME280;3250;42.694;23.278;2024-02-28T08:33:11;95304.59;;;19.16;46.26
6435;BME280;3250;42.694;23.278;2024-02-28T08:35:37;95290.13;;;18.58;48.94
6435;BME280;3250;42.694;23.278;2024-02-28T08:38:02;95296.91;;;18.27;51.00
6435;BME280;3250;42.694;23.278;2024-02-28T08:40:29;95292.56;;;17.83;50.79
6435;BME280;3250;42.694;23.278;2024-02-28T08:42:55;95295.16;;;17.94;52.52
6435;BME280;3250;42.694;23.278;2024-02-28T08:45:24;95294.25;;;18.27;54.92
6435;BME280;3250;42.694;23.278;2024-02-28T08:47:50;95281.22;;;18.53;53.27
6435;BME280;3250;42.694;23.278;2024-02-28T08:50:15;95288.09;;;18.70;50.62
6435;BME280;3250;42.694;23.278;2024-02-28T08:52:41;95263.19;;;18.38;50.33
6435;BME280;3250;42.694;23.278;2024-02-28T08:55:06;95278.00;;;18.51;49.93
6435;BME280;3250;42.694;23.278;2024-02-28T08:57:32;95282.97;;;18.64;50.27
6435;BME280;3250;42.694;23.278;2024-02-28T08:59:59;95284.19;;;18.78;49.67
6435;BME280;3250;42.694;23.278;2024-02-28T09:02:24;95296.59;;;18.89;50.29
6435;BME280;3250;42.694;23.278;2024-02-28T09:04:50;95282.16;;;18.63;49.87
6435;BME280;3250;42.694;23.278;2024-02-28T09:07:18;95286.75;;;18.46;51.33
6435;BME280;3250;42.694;23.278;2024-02-28T09:09:45;95283.09;;;18.74;51.52
6435;BME280;3250;42.694;23.278;2024-02-28T09:12:11;95288.34;;;18.91;50.48
6435;BME280;3250;42.694;23.278;2024-02-28T09:14:36;95280.44;;;19.01;49.98
6435;BME280;3250;42.694;23.278;2024-02-28T09:17:02;95287.38;;;19.02;48.18
6435;BME280;3250;42.694;23.278;2024-02-28T09:19:31;95295.66;;;18.78;48.44
6435;BME280;3250;42.694;23.278;2024-02-28T09:21:57;95283.28;;;18.67;48.12
6435;BME280;3250;42.694;23.278;2024-02-28T09:24:24;95284.88;;;18.68;48.91
6435;BME280;3250;42.694;23.278;2024-02-28T09:26:50;95277.28;;;18.33;48.45
6435;BME280;3250;42.694;23.278;2024-02-28T09:29:16;95252.34;;;18.23;50.67
6435;BME280;3250;42.694;23.278;2024-02-28T09:31:42;95271.06;;;18.28;49.74
6435;BME280;3250;42.694;23.278;2024-02-28T09:34:07;95277.16;;;18.23;48.88
6435;BME280;3250;42.694;23.278;2024-02-28T09:36:44;95269.66;;;18.42;51.01
6435;BME280;3250;42.694;23.278;2024-02-28T09:39:14;95273.13;;;18.64;49.34
6435;BME280;3250;42.694;23.278;2024-02-28T09:41:43;95249.50;;;18.78;48.63
6435;BME280;3250;42.694;23.278;2024-02-28T09:44:08;95246.38;;;18.86;46.89
6435;BME280;3250;42.694;23.278;2024-02-28T09:46:34;95258.16;;;18.90;47.56
6435;BME280;3250;42.694;23.278;2024-02-28T09:49:04;95258.13;;;18.85;49.52
6435;BME280;3250;42.694;23.278;2024-02-28T09:51:34;95260.94;;;19.00;47.35
6435;BME280;3250;42.694;23.278;2024-02-28T09:54:01;95238.34;;;18.81;46.42
6435;BME280;3250;42.694;23.278;2024-02-28T09:56:27;95254.75;;;18.68;46.68
6435;BME280;3250;42.694;23.278;2024-02-28T09:58:54;95253.97;;;18.24;47.83
6435;BME280;3250;42.694;23.278;2024-02-28T10:01:21;95252.56;;;17.99;48.43
6435;BME280;3250;42.694;23.278;2024-02-28T10:03:49;95253.66;;;17.82;49.10
6435;BME280;3250;42.694;23.278;2024-02-28T10:06:16;95240.31;;;17.60;50.17
6435;BME280;3250;42.694;23.278;2024-02-28T10:08:42;95246.84;;;17.52;50.72
6435;BME280;3250;42.694;23.278;2024-02-28T10:11:07;95247.44;;;17.21;50.46
6435;BME280;3250;42.694;23.278;2024-02-28T10:13:33;95234.69;;;17.06;51.13
6435;BME280;3250;42.694;23.278;2024-02-28T10:15:58;95244.69;;;16.99;51.88
6435;BME280;3250;42.694;23.278;2024-02-28T10:18:25;95238.06;;;16.68;51.83
6435;BME280;3250;42.694;23.278;2024-02-28T10:20:51;95240.03;;;16.61;52.20
6435;BME280;3250;42.694;23.278;2024-02-28T10:23:16;95231.66;;;16.41;52.59
6435;BME280;3250;42.694;23.278;2024-02-28T10:25:46;95201.25;;;16.20;53.29
6435;BME280;3250;42.694;23.278;2024-02-28T10:28:12;95225.75;;;16.50;54.60
6435;BME280;3250;42.694;23.278;2024-02-28T10:30:43;95221.94;;;16.75;53.01
6435;BME280;3250;42.694;23.278;2024-02-28T10:33:13;95213.81;;;16.81;52.22
6435;BME280;3250;42.694;23.278;2024-02-28T10:35:44;95215.03;;;16.90;53.35
6435;BME280;3250;42.694;23.278;2024-02-28T10:38:14;95205.44;;;16.89;52.65
6435;BME280;3250;42.694;23.278;2024-02-28T10:40:43;95215.34;;;16.94;51.13
6435;BME280;3250;42.694;23.278;2024-02-28T10:43:09;95200.09;;;17.06;51.20
6435;BME280;3250;42.694;23.278;2024-02-28T10:45:38;95202.47;;;17.19;51.20
6435;BME280;3250;42.694;23.278;2024-02-28T10:48:04;95201.44;;;17.42;50.67
6435;BME280;3250;42.694;23.278;2024-02-28T10:50:30;95201.13;;;17.55;51.07
6435;BME280;3250;42.694;23.278;2024-02-28T10:53:01;95194.81;;;17.61;51.60
6435;BME280;3250;42.694;23.278;2024-02-28T10:55:34;95198.50;;;17.60;49.48
6435;BME280;3250;42.694;23.278;2024-02-28T10:58:09;95196.44;;;17.62;49.64
6435;BME280;3250;42.694;23.278;2024-02-28T11:00:36;95198.06;;;17.63;48.96
6435;BME280;3250;42.694;23.278;2024-02-28T11:03:11;95195.44;;;17.68;49.75
6435;BME280;3250;42.694;23.278;2024-02-28T11:05:38;95184.69;;;17.80;49.21
6435;BME280;3250;42.694;23.278;2024-02-28T11:08:10;95178.41;;;17.91;48.46
6435;BME280;3250;42.694;23.278;2024-02-28T11:10:40;95163.31;;;17.75;48.67
6435;BME280;3250;42.694;23.278;2024-02-28T11:13:05;95178.03;;;17.83;47.43
6435;BME280;3250;42.694;23.278;2024-02-28T11:15:31;95170.06;;;17.83;47.22
6435;BME280;3250;42.694;23.278;2024-02-28T11:18:07;95165.41;;;17.73;47.46
6435;BME280;3250;42.694;23.278;2024-02-28T11:20:34;95160.84;;;17.68;46.43
6435;BME280;3250;42.694;23.278;2024-02-28T11:23:00;95161.69;;;17.35;46.67
6435;BME280;3250;42.694;23.278;2024-02-28T11:25:25;95155.59;;;17.18;45.72
6435;BME280;3250;42.694;23.278;2024-02-28T11:27:51;95150.69;;;17.10;46.40
6435;BME280;3250;42.694;23.278;2024-02-28T11:30:17;95151.56;;;17.16;46.86
6435;BME280;3250;42.694;23.278;2024-02-28T11:32:42;95156.56;;;17.29;47.96
6435;BME280;3250;42.694;23.278;2024-02-28T11:35:09;95150.63;;;17.44;47.55
6435;BME280;3250;42.694;23.278;2024-02-28T11:37:38;95123.53;;;17.47;46.39
6435;BME280;3250;42.694;23.278;2024-02-28T11:40:10;95146.47;;;17.69;44.64
6435;BME280;3250;42.694;23.278;2024-02-28T11:42:37;95145.41;;;17.70;44.76
6435;BME280;3250;42.694;23.278;2024-02-28T11:45:03;95146.53;;;17.75;44.64
6435;BME280;3250;42.694;23.278;2024-02-28T11:47:31;95142.59;;;17.60;45.17
6435;BME280;3250;42.694;23.278;2024-02-28T11:49:59;95124.06;;;17.49;46.05
6435;BME280;3250;42.694;23.278;2024-02-28T11:52:26;95138.31;;;17.59;46.63
6435;BME280;3250;42.694;23.278;2024-02-28T11:54:52;95127.75;;;17.64;45.67
6435;BME280;3250;42.694;23.278;2024-02-28T11:57:19;95129.75;;;17.74;45.86
6435;BME280;3250;42.694;23.278;2024-02-28T11:59:44;95115.31;;;17.70;44.55
6435;BME280;3250;42.694;23.278;2024-02-28T12:02:14;95126.09;;;17.80;44.77
6435;BME280;3250;42.694;23.278;2024-02-28T12:04:42;95128.50;;;17.82;44.51
6435;BME280;3250;42.694;23.278;2024-02-28T12:07:09;95120.50;;;17.82;44.80
6435;BME280;3250;42.694;23.278;2024-02-28T12:09:35;95114.69;;;17.85;45.03
6435;BME280;3250;42.694;23.278;2024-02-28T12:12:01;95110.41;;;17.84;45.11
6435;BME280;3250;42.694;23.278;2024-02-28T12:14:27;95100.28;;;17.81;44.29
6435;BME280;3250;42.694;23.278;2024-02-28T12:16:53;95106.69;;;17.85;44.88
6435;BME280;3250;42.694;23.278;2024-02-28T12:19:18;95099.91;;;17.72;45.37
6435;BME280;3250;42.694;23.278;2024-02-28T12:21:46;95101.25;;;17.75;45.68
6435;BME280;3250;42.694;23.278;2024-02-28T12:24:12;95091.59;;;17.68;46.23
6435;BME280;3250;42.694;23.278;2024-02-28T12:26:39;95098.94;;;17.83;46.13
6435;BME280;3250;42.694;23.278;2024-02-28T12:29:04;95097.16;;;17.89;45.68
6435;BME280;3250;42.694;23.278;2024-02-28T12:31:30;95086.00;;;17.92;45.11
6435;BME280;3250;42.694;23.278;2024-02-28T12:33:56;95090.47;;;17.86;45.12
6435;BME280;3250;42.694;23.278;2024-02-28T12:36:21;95096.34;;;17.88;45.26
6435;BME280;3250;42.694;23.278;2024-02-28T12:38:47;95090.25;;;17.93;44.76
6435;BME280;3250;42.694;23.278;2024-02-28T12:41:13;95090.59;;;17.96;44.73
6435;BME280;3250;42.694;23.278;2024-02-28T12:43:40;95092.19;;;17.97;44.34
6435;BME280;3250;42.694;23.278;2024-02-28T12:46:05;95068.66;;;17.89;44.44
6435;BME280;3250;42.694;23.278;2024-02-28T12:48:37;95075.00;;;18.10;44.40
6435;BME280;3250;42.694;23.278;2024-02-28T12:51:03;95087.22;;;18.06;44.23
6435;BME280;3250;42.694;23.278;2024-02-28T12:53:30;95079.13;;;17.96;44.45
6435;BME280;3250;42.694;23.278;2024-02-28T12:55:55;95080.50;;;17.98;44.30
6435;BME280;3250;42.694;23.278;2024-02-28T12:58:21;95084.38;;;17.91;44.54
6435;BME280;3250;42.694;23.278;2024-02-28T13:00:48;95088.38;;;17.88;45.07
6435;BME280;3250;42.694;23.278;2024-02-28T13:03:14;95077.72;;;17.88;46.15
6435;BME280;3250;42.694;23.278;2024-02-28T13:05:40;95079.81;;;17.86;45.33
6435;BME280;3250;42.694;23.278;2024-02-28T13:08:05;95083.28;;;17.87;45.58
6435;BME280;3250;42.694;23.278;2024-02-28T13:10:31;95073.81;;;17.74;44.90
6435;BME280;3250;42.694;23.278;2024-02-28T13:12:59;95061.81;;;17.71;45.36
6435;BME280;3250;42.694;23.278;2024-02-28T13:15:25;95079.63;;;17.93;45.14
6435;BME280;3250;42.694;23.278;2024-02-28T13:17:50;95082.78;;;17.90;44.74
6435;BME280;3250;42.694;23.278;2024-02-28T13:20:17;95078.00;;;17.92;45.15
6435;BME280;3250;42.694;23.278;2024-02-28T13:22:43;95087.81;;;17.86;45.65